createdAt,value
2023-12-27T00:02:00.246Z,63.29
2023-12-27T00:04:27.975Z,61.55
2023-12-27T00:06:58.522Z,62.67
2023-12-27T00:09:26.034Z,62.59
2023-12-27T00:11:53.864Z,64.16
2023-12-27T00:14:21.516Z,63.68
2023-12-27T00:16:48.928Z,64.97
2023-12-27T00:19:16.758Z,63.97
2023-12-27T00:21:44.400Z,64.34
2023-12-27T00:24:11.843Z,64.23
2023-12-27T00:26:39.694Z,63.42
2023-12-27T00:29:07.133Z,65.18
2023-12-27T00:31:34.778Z,66.79
2023-12-27T00:34:02.707Z,65.50
2023-12-27T00:36:31.609Z,65.60
2023-12-27T00:39:00.993Z,66.43
2023-12-27T00:41:29.207Z,65.46
2023-12-27T00:43:56.701Z,64.93
2023-12-27T00:46:25.011Z,65.63
2023-12-27T00:48:52.901Z,64.97
2023-12-27T00:51:20.911Z,65.40
2023-12-27T00:53:49.520Z,65.13
2023-12-27T00:56:17.238Z,64.00
2023-12-27T00:58:44.678Z,65.20
2023-12-27T01:01:13.075Z,62.82
2023-12-27T01:03:41.685Z,64.39
2023-12-27T01:06:10.661Z,63.36
2023-12-27T01:08:38.407Z,62.61
2023-12-27T01:11:06.334Z,62.93
2023-12-27T01:13:33.818Z,62.71
2023-12-27T01:16:01.430Z,61.26
2023-12-27T01:18:29.292Z,62.17
2023-12-27T01:20:57.081Z,62.55
2023-12-27T01:23:24.530Z,62.58
2023-12-27T01:25:52.237Z,61.19
2023-12-27T01:28:19.906Z,60.55
2023-12-27T01:30:47.454Z,62.15
2023-12-27T01:33:15.358Z,60.73
2023-12-27T01:35:42.901Z,60.49
2023-12-27T01:38:10.310Z,61.19
2023-12-27T01:40:38.081Z,61.54
2023-12-27T01:43:05.497Z,60.74
2023-12-27T01:45:32.955Z,61.66
2023-12-27T01:48:01.008Z,61.26
2023-12-27T01:50:28.781Z,61.70
2023-12-27T01:52:56.284Z,61.25
2023-12-27T01:55:23.972Z,60.77
2023-12-27T01:57:51.405Z,60.60
2023-12-27T02:00:19.031Z,59.56
2023-12-27T02:02:46.370Z,60.94
2023-12-27T02:05:14.054Z,59.02
2023-12-27T02:07:41.539Z,61.35
2023-12-27T02:10:09.163Z,60.78
2023-12-27T02:12:37.106Z,60.38
2023-12-27T02:15:05.528Z,62.80
2023-12-27T02:17:34.021Z,61.31
2023-12-27T02:20:01.857Z,61.23
2023-12-27T02:22:29.574Z,61.82
2023-12-27T02:24:57.001Z,62.76
2023-12-27T02:27:24.492Z,60.26
2023-12-27T02:29:52.198Z,60.92
2023-12-27T02:32:19.603Z,61.51
2023-12-27T02:34:47.222Z,60.36
2023-12-27T02:37:14.972Z,60.29
2023-12-27T02:39:42.342Z,59.50
2023-12-27T02:42:09.886Z,58.81
2023-12-27T02:44:37.562Z,58.37
2023-12-27T02:47:04.982Z,58.48
2023-12-27T02:49:32.456Z,58.91
2023-12-27T02:52:00.205Z,59.78
2023-12-27T02:54:27.631Z,58.26
2023-12-27T02:56:55.141Z,57.73
2023-12-27T02:59:22.817Z,56.35
2023-12-27T03:01:50.573Z,58.19
2023-12-27T03:04:18.019Z,57.02
2023-12-27T03:06:45.693Z,60.18
2023-12-27T03:09:13.536Z,57.50
2023-12-27T03:11:40.961Z,58.20
2023-12-27T03:14:08.673Z,58.89
2023-12-27T03:16:36.165Z,58.39
2023-12-27T03:19:03.796Z,57.41
2023-12-27T03:21:31.615Z,56.97
2023-12-27T03:23:59.163Z,56.25
2023-12-27T03:26:26.581Z,55.85
2023-12-27T03:28:54.303Z,57.78
2023-12-27T03:31:21.722Z,56.59
2023-12-27T03:33:49.296Z,57.73
2023-12-27T03:36:17.191Z,58.05
2023-12-27T03:38:44.631Z,59.04
2023-12-27T03:41:12.031Z,57.65
2023-12-27T03:43:40.139Z,59.37
2023-12-27T03:46:07.522Z,58.05
2023-12-27T03:48:35.889Z,57.81
2023-12-27T03:51:04.220Z,58.55
2023-12-27T03:53:32.602Z,59.35
2023-12-27T03:55:59.986Z,57.96
2023-12-27T03:58:27.670Z,59.18
2023-12-27T04:00:56.250Z,60.63
2023-12-27T04:03:24.224Z,58.01
2023-12-27T04:05:51.765Z,58.98
2023-12-27T04:08:19.210Z,60.28
2023-12-27T04:10:46.862Z,58.08
2023-12-27T04:13:14.284Z,56.77
2023-12-27T04:15:41.871Z,58.15
2023-12-27T04:18:12.737Z,57.31
2023-12-27T04:20:40.175Z,57.35
2023-12-27T04:23:07.580Z,56.41
2023-12-27T04:25:35.300Z,58.54
2023-12-27T04:28:03.414Z,57.33
2023-12-27T04:30:30.998Z,60.39
2023-12-27T04:32:59.117Z,61.52
2023-12-27T04:35:26.644Z,59.87
2023-12-27T04:37:54.109Z,59.00
2023-12-27T04:40:23.482Z,59.13
2023-12-27T04:42:50.906Z,59.97
2023-12-27T04:45:18.356Z,58.61
2023-12-27T04:47:46.116Z,58.56
2023-12-27T04:50:15.676Z,58.69
2023-12-27T04:52:43.385Z,59.90
2023-12-27T04:55:11.025Z,59.63
2023-12-27T04:57:38.922Z,59.42
2023-12-27T05:00:08.686Z,59.02
2023-12-27T05:02:36.434Z,59.33
2023-12-27T05:05:04.470Z,58.26
2023-12-27T05:07:32.167Z,59.95
2023-12-27T05:09:59.830Z,57.97
2023-12-27T05:12:27.235Z,58.38
2023-12-27T05:14:54.654Z,56.91
2023-12-27T05:17:23.033Z,58.44
2023-12-27T05:19:50.438Z,60.33
2023-12-27T05:22:18.460Z,60.83
2023-12-27T05:24:46.192Z,58.25
2023-12-27T05:27:13.642Z,57.50
2023-12-27T05:29:41.392Z,58.97
2023-12-27T05:32:09.074Z,59.81
2023-12-27T05:34:36.768Z,59.60
2023-12-27T05:37:04.324Z,60.32
2023-12-27T05:39:32.175Z,63.09
2023-12-27T05:41:59.627Z,60.19
2023-12-27T05:44:27.082Z,61.16
2023-12-27T05:46:54.749Z,59.36
2023-12-27T05:49:22.339Z,61.65
2023-12-27T05:51:49.801Z,61.10
2023-12-27T05:54:19.212Z,61.55
2023-12-27T05:56:46.659Z,59.21
2023-12-27T05:59:14.315Z,60.07
2023-12-27T06:01:48.898Z,58.75
2023-12-27T06:04:16.648Z,58.28
2023-12-27T06:06:45.144Z,59.04
2023-12-27T06:09:12.590Z,58.47
2023-12-27T06:11:40.302Z,58.50
2023-12-27T06:14:08.720Z,58.50
2023-12-27T06:16:36.140Z,58.40
2023-12-27T06:19:04.045Z,58.33
2023-12-27T06:21:31.559Z,58.48
2023-12-27T06:23:59.019Z,59.05
2023-12-27T06:26:26.695Z,58.50
2023-12-27T06:28:54.081Z,59.41
2023-12-27T06:31:21.584Z,59.42
2023-12-27T06:33:49.412Z,59.56
2023-12-27T06:36:16.994Z,60.08
2023-12-27T06:38:47.307Z,60.21
2023-12-27T06:41:17.573Z,61.63
2023-12-27T06:43:45.352Z,60.80
2023-12-27T06:46:12.804Z,61.32
2023-12-27T06:48:40.675Z,62.23
2023-12-27T06:51:08.936Z,62.99
2023-12-27T06:53:36.756Z,61.87
2023-12-27T06:56:04.675Z,62.45
2023-12-27T06:58:32.092Z,62.75
2023-12-27T07:00:59.633Z,61.85
2023-12-27T07:03:27.414Z,61.26
2023-12-27T07:05:55.009Z,61.73
2023-12-27T07:08:22.455Z,61.27
2023-12-27T07:10:50.122Z,62.08
2023-12-27T07:13:17.506Z,62.37
2023-12-27T07:15:45.031Z,62.36
2023-12-27T07:18:12.854Z,62.66
2023-12-27T07:20:40.319Z,62.56
2023-12-27T07:23:07.725Z,62.85
2023-12-27T07:25:35.597Z,62.23
2023-12-27T07:28:03.056Z,62.58
2023-12-27T07:30:30.499Z,62.49
2023-12-27T07:32:58.415Z,62.39
2023-12-27T07:35:27.034Z,62.55
2023-12-27T07:37:54.548Z,62.01
2023-12-27T07:40:22.297Z,62.02
2023-12-27T07:42:50.048Z,61.83
2023-12-27T07:45:19.522Z,61.87
2023-12-27T07:47:47.382Z,62.25
2023-12-27T07:50:14.903Z,61.96
2023-12-27T07:52:43.304Z,62.05
2023-12-27T07:55:11.959Z,62.10
2023-12-27T07:57:39.483Z,61.78
2023-12-27T08:00:08.555Z,61.73
2023-12-27T08:02:39.666Z,61.49
2023-12-27T08:05:08.208Z,61.74
2023-12-27T08:07:35.652Z,61.15
2023-12-27T08:10:03.264Z,61.28
2023-12-27T08:12:32.196Z,60.87
2023-12-27T08:14:59.579Z,60.52
2023-12-27T08:17:27.889Z,59.88
2023-12-27T08:19:55.703Z,59.54
2023-12-27T08:22:23.180Z,59.68
2023-12-27T08:24:50.623Z,59.79
2023-12-27T08:27:18.594Z,60.42
2023-12-27T08:29:46.008Z,61.37
2023-12-27T08:32:13.546Z,63.03
2023-12-27T08:34:41.269Z,61.13
2023-12-27T08:37:08.713Z,60.10
2023-12-27T08:39:36.187Z,59.89
2023-12-27T08:42:04.144Z,60.49
2023-12-27T08:44:31.763Z,59.75
2023-12-27T08:46:59.143Z,61.79
2023-12-27T08:49:26.931Z,61.82
2023-12-27T08:51:54.403Z,60.60
2023-12-27T08:54:21.875Z,61.88
2023-12-27T08:56:49.605Z,61.28
2023-12-27T08:59:16.991Z,60.29
2023-12-27T09:01:44.405Z,58.27
2023-12-27T09:04:12.230Z,60.12
2023-12-27T09:06:39.834Z,60.45
2023-12-27T09:09:07.712Z,61.08
2023-12-27T09:11:41.336Z,61.11
2023-12-27T09:14:11.239Z,59.09
2023-12-27T09:16:38.973Z,58.87
2023-12-27T09:19:06.620Z,60.27
2023-12-27T09:21:34.438Z,58.07
2023-12-27T09:24:02.433Z,56.68
2023-12-27T09:26:30.793Z,55.18
2023-12-27T09:28:58.190Z,58.92
2023-12-27T09:31:30.551Z,58.53
2023-12-27T09:34:00.915Z,58.47
2023-12-27T09:36:28.965Z,59.10
2023-12-27T09:38:56.387Z,59.72
2023-12-27T09:41:23.865Z,59.30
2023-12-27T09:43:53.059Z,58.88
2023-12-27T09:46:20.478Z,57.18
2023-12-27T09:48:48.181Z,55.85
2023-12-27T09:51:23.851Z,57.12
2023-12-27T09:53:51.908Z,57.12
2023-12-27T09:56:19.942Z,59.08
2023-12-27T09:58:54.808Z,59.05
2023-12-27T10:01:24.776Z,56.53
2023-12-27T10:04:04.888Z,58.14
2023-12-27T10:06:48.988Z,57.21
2023-12-27T10:09:17.931Z,57.06
2023-12-27T10:11:45.985Z,56.70
2023-12-27T10:14:14.330Z,55.98
2023-12-27T10:16:42.096Z,59.80
2023-12-27T10:19:09.994Z,58.49
2023-12-27T10:21:44.370Z,59.58
2023-12-27T10:24:12.210Z,59.07
2023-12-27T10:26:39.732Z,57.69
2023-12-27T10:29:09.166Z,59.15
2023-12-27T10:31:37.839Z,59.92
2023-12-27T10:34:07.127Z,59.80
2023-12-27T10:36:39.430Z,59.94
2023-12-27T10:39:07.919Z,60.11
2023-12-27T10:41:35.432Z,59.39
2023-12-27T10:44:05.415Z,56.77
2023-12-27T10:46:33.512Z,56.90
2023-12-27T10:49:03.270Z,57.70
2023-12-27T10:51:31.154Z,56.14
2023-12-27T10:54:02.009Z,57.56
2023-12-27T10:56:29.411Z,55.38
2023-12-27T10:58:56.847Z,55.93
2023-12-27T11:01:25.017Z,55.51
2023-12-27T11:03:52.498Z,54.30
2023-12-27T11:06:20.347Z,54.96
2023-12-27T11:08:48.058Z,54.66
2023-12-27T11:11:15.593Z,54.61
2023-12-27T11:13:43.002Z,55.23
2023-12-27T11:16:10.791Z,54.95
2023-12-27T11:18:38.461Z,52.76
2023-12-27T11:21:06.008Z,52.17
2023-12-27T11:23:33.685Z,51.85
2023-12-27T11:26:01.529Z,51.99
2023-12-27T11:28:29.380Z,52.01
2023-12-27T11:30:57.202Z,53.78
2023-12-27T11:33:25.509Z,51.28
2023-12-27T11:35:53.706Z,54.03
2023-12-27T11:38:24.058Z,54.52
2023-12-27T11:41:00.370Z,54.52
2023-12-27T11:43:28.327Z,54.97
2023-12-27T11:46:02.368Z,54.60
2023-12-27T11:48:34.405Z,53.30
2023-12-27T11:51:02.010Z,54.63
2023-12-27T11:53:32.571Z,53.61
2023-12-27T11:56:00.405Z,53.32
2023-12-27T11:58:32.759Z,53.73
2023-12-27T12:01:31.720Z,52.88
2023-12-27T12:04:08.396Z,52.48
2023-12-27T12:06:53.782Z,51.54
2023-12-27T12:09:33.215Z,53.73
2023-12-27T12:12:11.587Z,51.90
2023-12-27T12:14:39.611Z,52.10
2023-12-27T12:17:08.234Z,53.03
2023-12-27T12:19:37.086Z,50.76
2023-12-27T12:22:05.117Z,50.04
2023-12-27T12:24:34.070Z,51.54
2023-12-27T12:27:02.001Z,51.60
2023-12-27T12:29:30.282Z,52.11
2023-12-27T12:31:57.810Z,51.56
2023-12-27T12:34:25.645Z,50.34
2023-12-27T12:36:53.555Z,48.98
2023-12-27T12:39:21.189Z,49.76
2023-12-27T12:41:48.707Z,50.11
2023-12-27T12:44:16.764Z,49.44
2023-12-27T12:46:44.293Z,49.34
2023-12-27T12:49:11.909Z,49.96
2023-12-27T12:51:39.707Z,50.54
2023-12-27T12:54:08.866Z,50.81
2023-12-27T12:56:40.572Z,49.66
2023-12-27T12:59:09.065Z,50.05
2023-12-27T13:01:36.691Z,48.32
2023-12-27T13:04:06.378Z,47.77
2023-12-27T13:06:35.802Z,47.04
2023-12-27T13:09:04.628Z,47.16
2023-12-27T13:11:35.517Z,46.27
2023-12-27T13:14:03.291Z,46.49
2023-12-27T13:16:30.683Z,47.01
2023-12-27T13:19:01.496Z,47.18
2023-12-27T13:21:30.365Z,47.04
2023-12-27T13:23:57.812Z,48.17
2023-12-27T13:26:25.288Z,48.11
2023-12-27T13:28:53.091Z,48.27
2023-12-27T13:31:21.111Z,48.31
2023-12-27T13:33:49.309Z,48.63
2023-12-27T13:36:17.777Z,48.94
2023-12-27T13:38:45.374Z,49.95
2023-12-27T13:41:12.789Z,49.87
2023-12-27T13:43:41.032Z,50.14
2023-12-27T13:46:08.674Z,50.41
2023-12-27T13:48:36.240Z,50.99
2023-12-27T13:51:04.146Z,49.16
2023-12-27T13:53:31.616Z,48.81
2023-12-27T13:55:59.084Z,49.09
2023-12-27T13:58:26.814Z,49.40
2023-12-27T14:00:54.262Z,49.98
2023-12-27T14:03:22.052Z,50.54
2023-12-27T14:05:49.537Z,50.92
2023-12-27T14:08:16.987Z,51.33
2023-12-27T14:10:45.721Z,51.80
2023-12-27T14:13:13.090Z,52.11
2023-12-27T14:15:40.566Z,52.44
2023-12-27T14:18:11.482Z,52.62
2023-12-27T14:20:40.709Z,52.93
2023-12-27T14:23:09.309Z,53.50
2023-12-27T14:25:36.872Z,53.62
2023-12-27T14:28:04.644Z,54.05
2023-12-27T14:30:33.090Z,54.26
2023-12-27T14:33:00.811Z,53.88
2023-12-27T14:35:28.816Z,54.63
2023-12-27T14:37:56.886Z,54.43
2023-12-27T14:40:26.687Z,54.26
2023-12-27T14:42:54.398Z,54.23
2023-12-27T14:45:22.397Z,54.30
2023-12-27T14:47:49.857Z,54.80
2023-12-27T14:50:17.282Z,55.13
2023-12-27T14:52:44.967Z,55.37
2023-12-27T14:55:12.485Z,55.80
2023-12-27T14:57:39.992Z,55.96
2023-12-27T15:00:08.135Z,55.91
2023-12-27T15:02:35.646Z,55.64
2023-12-27T15:05:03.438Z,55.85
2023-12-27T15:07:31.108Z,56.13
2023-12-27T15:09:58.539Z,56.28
2023-12-27T15:12:26.531Z,56.37
2023-12-27T15:14:56.869Z,56.58
2023-12-27T15:17:25.581Z,56.58
2023-12-27T15:19:53.046Z,57.02
2023-12-27T15:22:20.753Z,56.48
2023-12-27T15:24:48.255Z,56.64
2023-12-27T15:27:16.385Z,56.99
2023-12-27T15:29:44.677Z,57.34
2023-12-27T15:32:12.071Z,57.42
2023-12-27T15:34:43.225Z,57.72
2023-12-27T15:37:11.316Z,57.50
2023-12-27T15:39:38.798Z,57.71
2023-12-27T15:42:06.312Z,57.57
2023-12-27T15:44:34.004Z,57.63
2023-12-27T15:47:02.558Z,57.76
2023-12-27T15:49:30.200Z,57.94
2023-12-27T15:51:58.737Z,57.96
2023-12-27T15:54:26.205Z,58.54
2023-12-27T15:56:55.400Z,58.56
2023-12-27T15:59:23.201Z,58.71
2023-12-27T16:01:51.065Z,58.04
2023-12-27T16:04:19.407Z,58.26
2023-12-27T16:06:47.229Z,58.26
2023-12-27T16:09:15.036Z,58.96
2023-12-27T16:11:46.345Z,58.74
2023-12-27T16:14:13.971Z,58.72
2023-12-27T16:16:44.337Z,58.79
2023-12-27T16:19:12.433Z,59.04
2023-12-27T16:21:40.189Z,59.74
2023-12-27T16:24:07.875Z,59.52
2023-12-27T16:26:35.634Z,59.87
2023-12-27T16:29:03.051Z,59.90
2023-12-27T16:31:30.544Z,59.99
2023-12-27T16:33:58.371Z,59.82
2023-12-27T16:36:26.470Z,59.48
2023-12-27T16:38:55.383Z,59.63
2023-12-27T16:41:23.301Z,59.99
2023-12-27T16:43:50.926Z,60.08
2023-12-27T16:46:18.593Z,60.24
2023-12-27T16:48:48.300Z,60.24
2023-12-27T16:51:17.311Z,60.37
2023-12-27T16:53:44.776Z,60.60
2023-12-27T16:56:18.538Z,60.44
2023-12-27T16:58:47.861Z,60.61
2023-12-27T17:01:15.623Z,60.78
2023-12-27T17:03:43.353Z,60.20
2023-12-27T17:06:11.549Z,60.22
2023-12-27T17:08:39.380Z,60.58
2023-12-27T17:11:06.953Z,60.99
2023-12-27T17:13:34.394Z,60.64
2023-12-27T17:16:02.062Z,60.66
2023-12-27T17:18:31.641Z,60.54
2023-12-27T17:20:59.296Z,60.66
2023-12-27T17:23:26.949Z,61.30
2023-12-27T17:25:55.497Z,60.83
2023-12-27T17:28:22.925Z,61.87
2023-12-27T17:30:50.753Z,61.27
2023-12-27T17:33:18.329Z,61.78
2023-12-27T17:35:49.143Z,61.46
2023-12-27T17:38:16.934Z,61.33
2023-12-27T17:40:45.785Z,61.58
2023-12-27T17:43:13.413Z,61.32
2023-12-27T17:45:41.104Z,61.09
2023-12-27T17:48:08.955Z,60.71
2023-12-27T17:50:38.976Z,60.58
2023-12-27T17:53:06.651Z,60.64
2023-12-27T17:55:35.479Z,60.93
2023-12-27T17:58:02.912Z,60.49
2023-12-27T18:00:30.584Z,60.72
2023-12-27T18:02:58.379Z,60.14
2023-12-27T18:05:30.566Z,60.05
2023-12-27T18:07:58.258Z,60.24
2023-12-27T18:10:26.199Z,60.81
2023-12-27T18:12:53.781Z,60.20
2023-12-27T18:15:21.727Z,60.25
2023-12-27T18:17:49.293Z,60.15
2023-12-27T18:20:16.751Z,60.01
2023-12-27T18:22:44.423Z,60.05
2023-12-27T18:25:12.366Z,60.32
2023-12-27T18:27:39.923Z,60.40
2023-12-27T18:30:08.636Z,60.28
2023-12-27T18:32:36.196Z,60.04
2023-12-27T18:35:04.961Z,59.89
2023-12-27T18:37:32.804Z,60.05
2023-12-27T18:40:00.395Z,59.88
2023-12-27T18:42:27.980Z,60.15
2023-12-27T18:44:55.692Z,59.95
2023-12-27T18:47:23.141Z,60.33
2023-12-27T18:49:50.694Z,60.15
2023-12-27T18:52:18.459Z,60.12
2023-12-27T18:54:45.938Z,60.14
2023-12-27T18:57:14.206Z,60.20
2023-12-27T18:59:41.946Z,60.85
2023-12-27T19:02:09.387Z,60.36
2023-12-27T19:04:37.413Z,60.70
2023-12-27T19:07:05.221Z,60.33
2023-12-27T19:09:33.978Z,60.74
2023-12-27T19:12:02.079Z,60.86
2023-12-27T19:14:29.941Z,61.14
2023-12-27T19:16:57.387Z,61.57
2023-12-27T19:19:25.497Z,62.00
2023-12-27T19:21:57.405Z,62.65
2023-12-27T19:24:25.039Z,61.79
2023-12-27T19:26:54.981Z,62.58
2023-12-27T19:29:22.870Z,62.86
2023-12-27T19:31:50.370Z,62.40
2023-12-27T19:34:18.152Z,63.24
2023-12-27T19:36:45.649Z,62.29
2023-12-27T19:39:13.166Z,62.53
2023-12-27T19:41:40.870Z,61.86
2023-12-27T19:44:08.472Z,61.74
2023-12-27T19:46:35.876Z,62.97
2023-12-27T19:49:03.799Z,61.95
2023-12-27T19:51:31.455Z,62.04
2023-12-27T19:53:58.888Z,61.67
2023-12-27T19:56:26.538Z,62.14
2023-12-27T19:58:54.123Z,61.69
2023-12-27T20:01:25.795Z,61.64
2023-12-27T20:03:53.598Z,61.21
2023-12-27T20:06:21.082Z,61.45
2023-12-27T20:08:48.531Z,62.36
2023-12-27T20:11:16.420Z,63.34
2023-12-27T20:13:44.208Z,61.89
2023-12-27T20:16:11.705Z,61.54
2023-12-27T20:18:39.552Z,62.16
2023-12-27T20:21:07.353Z,61.46
2023-12-27T20:23:39.733Z,61.11
2023-12-27T20:26:07.711Z,61.95
2023-12-27T20:28:36.723Z,62.41
2023-12-27T20:31:05.230Z,61.79
2023-12-27T20:33:34.274Z,61.40
2023-12-27T20:36:03.143Z,61.17
2023-12-27T20:38:30.630Z,61.08
2023-12-27T20:40:58.321Z,60.76
2023-12-27T20:43:25.740Z,60.52
2023-12-27T20:45:53.249Z,60.52
2023-12-27T20:48:24.243Z,60.81
2023-12-27T20:50:52.382Z,60.34
2023-12-27T20:53:19.836Z,60.45
2023-12-27T20:55:47.532Z,61.41
2023-12-27T20:58:14.972Z,60.94
2023-12-27T21:00:42.547Z,60.58
2023-12-27T21:03:10.480Z,60.33
2023-12-27T21:05:38.533Z,60.32
2023-12-27T21:08:06.441Z,60.15
2023-12-27T21:10:34.156Z,60.46
2023-12-27T21:13:01.632Z,60.18
2023-12-27T21:15:29.157Z,60.23
2023-12-27T21:17:57.178Z,60.16
2023-12-27T21:20:24.854Z,60.77
2023-12-27T21:22:52.271Z,60.61
2023-12-27T21:25:20.055Z,61.16
2023-12-27T21:27:47.523Z,61.24
2023-12-27T21:30:15.310Z,60.97
2023-12-27T21:32:48.932Z,61.17
2023-12-27T21:35:16.562Z,60.98
2023-12-27T21:37:44.264Z,61.23
2023-12-27T21:40:11.785Z,60.94
2023-12-27T21:42:39.181Z,61.42
2023-12-27T21:45:07.435Z,61.44
2023-12-27T21:47:34.969Z,61.75
2023-12-27T21:50:02.769Z,61.45
2023-12-27T21:52:30.714Z,61.47
2023-12-27T21:54:58.163Z,61.50
2023-12-27T21:57:25.608Z,61.27
2023-12-27T21:59:53.323Z,61.46
2023-12-27T22:02:20.783Z,61.34
2023-12-27T22:04:48.474Z,61.44
2023-12-27T22:07:16.766Z,61.55
2023-12-27T22:09:44.547Z,61.63
2023-12-27T22:12:12.331Z,61.71
2023-12-27T22:14:39.773Z,61.67
2023-12-27T22:17:07.164Z,62.04
2023-12-27T22:19:36.538Z,62.01
2023-12-27T22:22:04.346Z,62.35
2023-12-27T22:24:31.808Z,62.77
2023-12-27T22:26:59.466Z,63.71
2023-12-27T22:29:26.945Z,64.18
2023-12-27T22:31:54.576Z,64.08
2023-12-27T22:34:22.525Z,63.86
2023-12-27T22:36:50.180Z,63.67
2023-12-27T22:39:18.604Z,63.32
2023-12-27T22:41:46.319Z,64.22
2023-12-27T22:44:13.745Z,64.16
2023-12-27T22:46:41.186Z,64.76
2023-12-27T22:49:08.987Z,63.54
2023-12-27T22:51:36.509Z,63.43
2023-12-27T22:54:03.971Z,63.99
2023-12-27T22:56:31.668Z,66.13
2023-12-27T22:58:59.221Z,64.80
2023-12-27T23:01:26.635Z,64.28
2023-12-27T23:03:54.776Z,64.14
2023-12-27T23:06:22.791Z,64.27
2023-12-27T23:08:50.656Z,64.56
2023-12-27T23:11:18.297Z,64.34
2023-12-27T23:13:45.682Z,64.13
2023-12-27T23:16:13.086Z,63.99
2023-12-27T23:18:40.961Z,65.60
2023-12-27T23:21:08.811Z,65.46
2023-12-27T23:23:36.199Z,64.56
2023-12-27T23:26:03.895Z,64.53
2023-12-27T23:28:31.337Z,64.17
2023-12-27T23:30:58.887Z,64.00
2023-12-27T23:33:27.004Z,64.82
2023-12-27T23:35:54.648Z,64.96
2023-12-27T23:38:22.060Z,64.85
2023-12-27T23:40:49.694Z,64.12
2023-12-27T23:43:17.061Z,64.51
2023-12-27T23:45:44.681Z,64.78
2023-12-27T23:48:12.517Z,64.04
2023-12-27T23:50:40.172Z,65.38
2023-12-27T23:53:07.584Z,66.45
2023-12-27T23:55:35.245Z,65.45
2023-12-27T23:58:03.001Z,64.53
